Time;durP1;ratioP1;P1;durP2;ratioP2;P2;SDS_P1;SDS_P2;PMS_P1;PMS_P2;Temp;Humidity;BMP_temperature;BMP_pressure;BME280_temperature;BME280_humidity;BME280_pressure;Samples;Min_cycle;Max_cycle;Signal;HPM_P1;HPM_P2
2021/09/02 00:02:24;;;;;;;1.60;1.10;;;12.60;98.20;;;;;;4982407;28;20485;-79
2021/09/02 00:04:51;;;;;;;1.60;1.13;;;12.60;98.20;;;;;;4992005;28;20457;-79
2021/09/02 00:07:21;;;;;;;1.60;1.10;;;12.50;98.20;;;;;;4984046;28;20492;-78
2021/09/02 00:09:48;;;;;;;1.60;1.10;;;12.50;98.20;;;;;;4991991;28;21167;-77
2021/09/02 00:12:15;;;;;;;1.60;1.20;;;12.50;98.20;;;;;;4983266;28;20477;-79
2021/09/02 00:14:42;;;;;;;1.60;1.20;;;12.50;98.20;;;;;;4992410;28;20584;-79
2021/09/02 00:17:08;;;;;;;1.60;1.10;;;12.50;98.20;;;;;;4986914;28;21055;-77
2021/09/02 00:19:36;;;;;;;1.60;1.10;;;12.50;98.20;;;;;;4992974;28;20488;-78
2021/09/02 00:22:04;;;;;;;1.60;1.10;;;12.50;98.20;;;;;;4983160;28;21100;-79
2021/09/02 00:24:30;;;;;;;1.60;1.20;;;12.50;98.20;;;;;;4992955;28;20476;-79
2021/09/02 00:26:57;;;;;;;1.60;1.10;;;12.40;98.20;;;;;;4983775;28;20504;-77
2021/09/02 00:29:24;;;;;;;1.60;1.00;;;12.40;98.20;;;;;;4991302;28;20460;-77
2021/09/02 00:31:51;;;;;;;1.60;1.10;;;12.40;98.20;;;;;;4984092;28;20952;-79
2021/09/02 00:34:17;;;;;;;1.60;1.10;;;12.40;98.20;;;;;;4992211;28;20824;-78
2021/09/02 00:36:46;;;;;;;1.60;1.20;;;12.40;98.20;;;;;;4984089;28;20496;-77
2021/09/02 00:39:12;;;;;;;1.60;1.10;;;12.40;98.20;;;;;;4992975;28;20481;-79
2021/09/02 00:41:39;;;;;;;1.60;1.10;;;12.30;98.20;;;;;;4982814;28;20484;-79
2021/09/02 00:44:06;;;;;;;1.60;1.10;;;12.30;98.20;;;;;;4997387;28;20488;-79
2021/09/02 00:46:33;;;;;;;1.60;1.10;;;12.30;98.20;;;;;;4982237;28;20480;-79
2021/09/02 00:48:59;;;;;;;1.60;1.10;;;12.30;98.20;;;;;;4992731;28;20463;-79
2021/09/02 00:51:26;;;;;;;1.60;1.30;;;12.30;98.20;;;;;;4985111;28;20480;-79
2021/09/02 00:53:56;;;;;;;1.60;1.10;;;12.30;98.20;;;;;;4992997;28;20495;-79
2021/09/02 00:56:24;;;;;;;1.60;1.10;;;12.30;98.20;;;;;;4983974;28;20472;-79
2021/09/02 00:58:51;;;;;;;1.60;1.20;;;12.30;98.20;;;;;;5001900;28;20461;-79
2021/09/02 01:01:19;;;;;;;1.60;1.20;;;12.20;98.20;;;;;;4986037;28;20528;-78
2021/09/02 01:03:46;;;;;;;1.60;1.20;;;12.20;98.20;;;;;;4993547;28;20491;-78
2021/09/02 01:06:14;;;;;;;1.60;1.20;;;12.20;98.20;;;;;;4966812;28;20499;-77
2021/09/02 01:08:42;;;;;;;1.60;1.10;;;12.20;98.20;;;;;;5002327;28;20469;-78
2021/09/02 01:11:10;;;;;;;1.60;1.20;;;12.20;98.20;;;;;;4981270;28;20488;-79
2021/09/02 01:13:36;;;;;;;1.60;1.10;;;12.20;98.20;;;;;;4989091;28;20833;-79
2021/09/02 01:16:04;;;;;;;1.60;1.10;;;12.20;98.20;;;;;;4987507;28;20842;-79
2021/09/02 01:18:30;;;;;;;1.60;1.20;;;12.20;98.20;;;;;;4991261;28;20457;-79
2021/09/02 01:20:57;;;;;;;1.60;1.13;;;12.20;98.20;;;;;;4984874;28;20489;-79
2021/09/02 01:23:25;;;;;;;1.60;1.20;;;12.30;98.20;;;;;;4991740;28;20500;-80
2021/09/02 01:25:52;;;;;;;1.60;1.10;;;12.30;98.20;;;;;;4990709;28;20464;-79
2021/09/02 01:28:19;;;;;;;1.60;1.10;;;12.30;98.20;;;;;;4991923;28;20465;-79
2021/09/02 01:30:46;;;;;;;1.60;1.10;;;12.30;98.20;;;;;;5001919;28;20456;-79
2021/09/02 01:33:14;;;;;;;1.60;1.10;;;12.30;98.20;;;;;;4964507;28;20493;-79
2021/09/02 01:35:41;;;;;;;1.60;1.00;;;12.30;98.20;;;;;;4993186;28;20893;-79
2021/09/02 01:38:11;;;;;;;1.60;1.10;;;12.40;98.20;;;;;;4981178;28;20485;-79
2021/09/02 01:40:42;;;;;;;1.60;1.13;;;12.40;98.20;;;;;;4994386;28;21001;-79
2021/09/02 01:43:11;;;;;;;1.60;1.17;;;12.40;98.20;;;;;;4978599;28;20497;-78
2021/09/02 01:45:39;;;;;;;1.60;1.10;;;12.40;98.20;;;;;;4988179;28;20469;-77
2021/09/02 01:48:07;;;;;;;1.60;1.10;;;12.40;98.20;;;;;;4979300;28;20500;-78
2021/09/02 01:50:35;;;;;;;1.60;1.10;;;12.50;98.20;;;;;;4992545;28;20468;-79
2021/09/02 01:53:06;;;;;;;1.60;1.10;;;12.40;98.20;;;;;;4991673;28;20497;-77
2021/09/02 01:55:33;;;;;;;1.57;1.10;;;12.50;98.20;;;;;;4992753;28;20468;-79
2021/09/02 01:58:02;;;;;;;1.60;1.20;;;12.50;98.20;;;;;;4981104;28;20496;-79
2021/09/02 02:00:29;;;;;;;1.57;1.10;;;12.50;98.20;;;;;;4993145;28;20493;-79
2021/09/02 02:02:56;;;;;;;1.60;1.10;;;12.50;98.20;;;;;;4980951;28;20485;-79
2021/09/02 02:05:22;;;;;;;1.60;1.10;;;12.50;98.20;;;;;;4987327;28;20476;-77
2021/09/02 02:07:50;;;;;;;1.60;1.20;;;12.50;98.20;;;;;;4980984;28;21072;-77
2021/09/02 02:10:20;;;;;;;1.60;1.10;;;12.50;98.20;;;;;;4993846;28;20840;-78
2021/09/02 02:12:47;;;;;;;1.60;1.10;;;12.60;98.20;;;;;;4981536;28;20489;-78
2021/09/02 02:15:15;;;;;;;1.60;1.10;;;12.60;98.20;;;;;;4992643;28;20690;-77
2021/09/02 02:17:42;;;;;;;1.60;1.10;;;12.60;98.20;;;;;;4978515;28;20481;-80
2021/09/02 02:20:11;;;;;;;1.60;1.20;;;12.60;98.20;;;;;;4994605;28;20515;-77
2021/09/02 02:22:38;;;;;;;1.60;1.20;;;12.70;98.20;;;;;;4983797;28;21099;-79
2021/09/02 02:25:07;;;;;;;1.60;1.10;;;12.70;98.20;;;;;;4990956;28;20456;-80
2021/09/02 02:27:33;;;;;;;1.60;1.10;;;12.70;98.20;;;;;;4980077;28;20508;-79
2021/09/02 02:30:00;;;;;;;1.60;1.10;;;12.70;98.20;;;;;;4991968;28;20835;-78
2021/09/02 02:32:28;;;;;;;1.60;1.13;;;12.80;98.20;;;;;;4981612;28;20492;-77
2021/09/02 02:34:55;;;;;;;1.57;1.00;;;12.80;98.20;;;;;;4990383;28;20480;-78
2021/09/02 02:37:22;;;;;;;1.60;1.20;;;12.80;98.20;;;;;;4980625;28;20833;-77
2021/09/02 02:39:49;;;;;;;1.60;1.10;;;12.90;98.20;;;;;;4991767;28;20485;-78
2021/09/02 02:42:17;;;;;;;1.60;1.20;;;12.90;98.20;;;;;;4984795;28;20894;-79
2021/09/02 02:44:44;;;;;;;1.60;1.10;;;12.90;98.20;;;;;;4992293;28;20464;-79
2021/09/02 02:47:11;;;;;;;1.60;1.10;;;13.00;98.20;;;;;;4977937;28;20484;-76
2021/09/02 02:49:39;;;;;;;1.60;1.10;;;13.00;98.20;;;;;;4989533;28;20464;-78
2021/09/02 02:52:08;;;;;;;1.60;1.10;;;13.10;98.20;;;;;;4977801;28;20485;-78
2021/09/02 02:54:35;;;;;;;1.60;1.00;;;13.10;98.20;;;;;;4990196;28;20499;-77
2021/09/02 02:57:02;;;;;;;1.60;1.10;;;13.10;98.20;;;;;;4977567;28;20481;-78
2021/09/02 02:59:29;;;;;;;1.60;1.10;;;13.10;98.20;;;;;;4990471;28;20461;-77
2021/09/02 03:01:55;;;;;;;1.60;1.10;;;13.20;98.20;;;;;;4979245;28;20489;-78
2021/09/02 03:04:22;;;;;;;1.60;1.10;;;13.20;98.20;;;;;;4986404;28;20489;-77
2021/09/02 03:06:50;;;;;;;1.60;1.00;;;13.30;98.20;;;;;;4979421;28;20488;-77
2021/09/02 03:09:17;;;;;;;1.60;1.10;;;13.30;98.20;;;;;;4991889;28;20465;-77
2021/09/02 03:11:44;;;;;;;1.60;1.10;;;13.30;98.20;;;;;;4979622;28;20516;-78
2021/09/02 03:14:11;;;;;;;1.60;1.10;;;13.40;98.20;;;;;;4989831;28;20872;-78
2021/09/02 03:16:38;;;;;;;1.57;1.10;;;13.40;98.20;;;;;;4981163;28;20485;-79
2021/09/02 03:19:04;;;;;;;1.60;1.13;;;13.40;98.20;;;;;;4991113;28;20472;-80
2021/09/02 03:21:31;;;;;;;1.60;1.10;;;13.40;98.20;;;;;;4983126;28;20492;-79
2021/09/02 03:23:59;;;;;;;1.57;1.00;;;13.40;98.20;;;;;;4995066;28;20484;-77
2021/09/02 03:26:26;;;;;;;1.57;1.10;;;13.40;98.20;;;;;;4985325;28;20477;-77
2021/09/02 03:28:53;;;;;;;1.60;1.10;;;13.40;98.20;;;;;;4989845;28;20475;-77
2021/09/02 03:31:23;;;;;;;1.60;1.10;;;13.40;98.20;;;;;;4986781;28;20535;-79
2021/09/02 03:33:49;;;;;;;1.60;1.20;;;13.40;98.20;;;;;;4993553;28;20527;-78
2021/09/02 03:36:16;;;;;;;1.60;1.00;;;13.40;98.20;;;;;;4985623;28;20554;-77
2021/09/02 03:38:44;;;;;;;1.60;1.10;;;13.40;98.20;;;;;;4997651;28;20515;-77
2021/09/02 03:41:13;;;;;;;1.50;1.00;;;13.40;98.20;;;;;;4991379;28;20484;-77
2021/09/02 03:43:39;;;;;;;1.57;1.00;;;13.40;98.20;;;;;;4998661;28;20485;-77
2021/09/02 03:46:06;;;;;;;1.57;1.10;;;13.40;98.20;;;;;;4999132;28;20495;-77
2021/09/02 03:48:33;;;;;;;1.60;1.10;;;13.40;98.20;;;;;;4999364;28;20488;-78
2021/09/02 03:51:00;;;;;;;1.53;1.00;;;13.40;98.20;;;;;;4990927;28;20461;-78
2021/09/02 03:53:27;;;;;;;1.57;1.03;;;13.30;98.20;;;;;;5001556;28;20500;-77
2021/09/02 03:55:55;;;;;;;1.57;1.10;;;13.30;98.20;;;;;;4991553;28;20548;-77
2021/09/02 03:58:23;;;;;;;1.60;1.10;;;13.30;98.20;;;;;;4998681;28;20813;-77
2021/09/02 04:00:50;;;;;;;1.60;1.20;;;13.30;98.20;;;;;;4990510;28;20476;-78
2021/09/02 04:03:17;;;;;;;1.53;1.00;;;13.30;98.20;;;;;;4997300;28;20484;-77
2021/09/02 04:05:45;;;;;;;1.53;1.10;;;13.20;98.20;;;;;;5001452;28;20475;-77
2021/09/02 04:08:12;;;;;;;1.57;1.07;;;13.20;98.20;;;;;;4968131;28;20532;-79
2021/09/02 04:10:38;;;;;;;1.57;1.00;;;13.10;98.20;;;;;;4997202;28;20524;-78
2021/09/02 04:13:05;;;;;;;1.57;1.10;;;13.10;98.20;;;;;;4985229;28;21177;-78
2021/09/02 04:15:33;;;;;;;1.60;1.10;;;13.10;98.20;;;;;;4997278;28;20453;-79
2021/09/02 04:18:00;;;;;;;1.57;1.10;;;13.10;98.20;;;;;;4987994;28;20487;-79
2021/09/02 04:20:27;;;;;;;1.60;1.10;;;13.00;98.20;;;;;;4996229;28;20491;-78
2021/09/02 04:22:55;;;;;;;1.60;1.20;;;13.00;98.20;;;;;;4984240;28;20496;-79
2021/09/02 04:25:22;;;;;;;1.50;1.10;;;13.00;98.20;;;;;;4998093;28;20496;-78
2021/09/02 04:27:49;;;;;;;1.57;1.10;;;13.00;98.20;;;;;;4987386;28;20481;-78
2021/09/02 04:30:16;;;;;;;1.50;1.00;;;13.00;98.20;;;;;;4995605;28;20556;-79
2021/09/02 04:32:45;;;;;;;1.63;1.27;;;13.00;98.20;;;;;;4984594;28;20499;-79
2021/09/02 04:35:13;;;;;;;1.57;1.10;;;12.90;98.20;;;;;;4997432;28;20464;-78
2021/09/02 04:37:42;;;;;;;1.60;1.10;;;12.90;98.20;;;;;;4987311;28;20484;-79
2021/09/02 04:40:11;;;;;;;1.60;1.10;;;12.90;98.20;;;;;;4995740;28;20575;-79
2021/09/02 04:42:37;;;;;;;1.60;1.00;;;12.90;98.20;;;;;;4995868;28;21026;-79
2021/09/02 04:45:05;;;;;;;1.53;1.10;;;12.90;98.20;;;;;;5000456;28;20471;-79
2021/09/02 04:47:32;;;;;;;1.60;1.00;;;12.90;98.20;;;;;;4996492;28;20922;-78
2021/09/02 04:50:01;;;;;;;1.60;1.10;;;12.90;98.20;;;;;;4996068;28;20460;-78
2021/09/02 04:52:29;;;;;;;1.60;1.07;;;12.90;98.20;;;;;;4989257;28;20491;-78
2021/09/02 04:54:56;;;;;;;1.60;1.10;;;12.80;98.20;;;;;;4997372;28;20966;-77
2021/09/02 04:57:24;;;;;;;1.60;1.10;;;12.80;98.20;;;;;;4983992;28;20707;-80
2021/09/02 04:59:51;;;;;;;1.60;1.10;;;12.80;98.20;;;;;;4996378;28;20528;-78
2021/09/02 05:02:18;;;;;;;1.60;1.10;;;12.70;98.20;;;;;;4983889;28;20505;-79
2021/09/02 05:04:45;;;;;;;1.60;1.10;;;12.70;98.20;;;;;;5000738;28;20465;-79
2021/09/02 05:07:13;;;;;;;1.60;1.10;;;12.70;98.20;;;;;;4983594;28;20512;-77
2021/09/02 05:09:40;;;;;;;1.53;1.10;;;12.70;98.20;;;;;;4994797;28;20468;-79
2021/09/02 05:12:08;;;;;;;1.53;1.10;;;12.70;98.20;;;;;;4986244;28;20488;-79
2021/09/02 05:14:34;;;;;;;1.60;1.10;;;12.60;98.20;;;;;;4993128;28;20489;-78
2021/09/02 05:17:01;;;;;;;1.60;1.10;;;12.60;98.20;;;;;;4982569;28;20515;-79
2021/09/02 05:19:28;;;;;;;1.70;1.40;;;12.60;98.20;;;;;;4991854;28;20473;-79
2021/09/02 05:21:55;;;;;;;1.60;1.10;;;12.60;98.20;;;;;;4984385;28;20481;-78
2021/09/02 05:24:23;;;;;;;1.60;1.10;;;12.60;98.20;;;;;;4992393;28;20555;-78
2021/09/02 05:26:49;;;;;;;1.60;1.10;;;12.60;98.20;;;;;;4988463;28;20489;-79
2021/09/02 05:29:16;;;;;;;1.60;1.10;;;12.60;98.20;;;;;;4992889;28;20831;-78
2021/09/02 05:31:43;;;;;;;1.60;1.10;;;12.60;98.20;;;;;;4985595;28;20492;-78
2021/09/02 05:34:18;;;;;;;1.60;1.10;;;12.60;98.20;;;;;;4993250;28;20493;-78
2021/09/02 05:36:45;;;;;;;1.60;1.10;;;12.60;98.20;;;;;;4989015;28;20492;-78
2021/09/02 05:39:12;;;;;;;1.60;1.10;;;12.60;98.20;;;;;;4987741;28;20465;-78
2021/09/02 05:41:41;;;;;;;1.60;1.20;;;12.60;98.20;;;;;;4983432;28;20636;-78
2021/09/02 05:44:11;;;;;;;1.60;1.10;;;12.60;98.20;;;;;;4993026;28;20531;-78
2021/09/02 05:46:38;;;;;;;1.60;1.10;;;12.70;98.20;;;;;;4983965;28;20489;-78
2021/09/02 05:49:06;;;;;;;1.60;1.10;;;12.70;98.20;;;;;;4993770;28;20493;-78
2021/09/02 05:51:34;;;;;;;1.60;1.10;;;12.80;98.20;;;;;;4997009;28;20485;-78
2021/09/02 05:54:01;;;;;;;1.60;1.10;;;12.80;98.20;;;;;;4998029;28;20496;-79
2021/09/02 05:56:28;;;;;;;1.60;1.10;;;12.90;98.20;;;;;;4987814;28;20484;-79
2021/09/02 05:58:56;;;;;;;1.57;1.00;;;13.00;98.20;;;;;;4999896;28;20466;-79
2021/09/02 06:01:23;;;;;;;1.60;1.10;;;13.00;98.20;;;;;;4981699;28;20482;-78
2021/09/02 06:03:50;;;;;;;1.60;1.00;;;13.10;98.20;;;;;;4996643;28;20571;-79
2021/09/02 06:06:16;;;;;;;1.60;1.10;;;13.30;98.20;;;;;;4983158;28;20863;-79
2021/09/02 06:08:43;;;;;;;1.60;1.00;;;13.40;98.20;;;;;;4988996;28;20849;-78
2021/09/02 06:11:10;;;;;;;1.60;1.10;;;13.50;98.20;;;;;;4986707;28;20518;-78
2021/09/02 06:13:37;;;;;;;1.60;1.10;;;13.60;98.20;;;;;;4992902;28;20484;-79
2021/09/02 06:16:06;;;;;;;1.60;1.10;;;13.70;98.20;;;;;;4987168;28;20457;-78
2021/09/02 06:18:33;;;;;;;1.60;1.10;;;13.80;98.20;;;;;;5000877;28;20461;-78
2021/09/02 06:20:59;;;;;;;1.53;1.00;;;13.90;98.20;;;;;;4982771;28;20488;-78
2021/09/02 06:23:26;;;;;;;1.60;1.00;;;14.00;98.20;;;;;;4992694;28;20484;-78
2021/09/02 06:25:53;;;;;;;1.60;1.00;;;14.10;98.20;;;;;;4983113;28;20464;-77
2021/09/02 06:28:20;;;;;;;1.60;1.00;;;14.30;98.20;;;;;;4994961;28;20461;-78
2021/09/02 06:30:47;;;;;;;1.60;1.10;;;14.50;98.20;;;;;;4988776;28;20468;-78
2021/09/02 06:33:15;;;;;;;1.60;1.00;;;14.60;98.20;;;;;;4994240;28;20541;-79
2021/09/02 06:35:42;;;;;;;1.60;1.00;;;14.70;98.20;;;;;;4996905;28;21088;-78
2021/09/02 06:38:09;;;;;;;1.60;1.00;;;14.80;98.20;;;;;;4982683;28;20481;-77
2021/09/02 06:40:36;;;;;;;1.60;1.00;;;15.00;98.20;;;;;;4995380;28;20512;-78
2021/09/02 06:43:03;;;;;;;1.60;1.00;;;15.00;98.20;;;;;;4983300;28;20848;-78
2021/09/02 06:45:30;;;;;;;1.60;1.10;;;15.10;98.20;;;;;;5003246;28;20751;-78
2021/09/02 06:47:57;;;;;;;1.60;1.00;;;15.10;98.20;;;;;;4986880;28;20484;-78
2021/09/02 06:50:25;;;;;;;1.60;1.00;;;15.20;98.20;;;;;;4994053;28;20461;-78
2021/09/02 06:52:52;;;;;;;1.60;1.00;;;15.30;98.20;;;;;;4984700;28;20488;-78
2021/09/02 06:55:19;;;;;;;1.60;1.00;;;15.30;98.20;;;;;;4989511;28;20476;-78
2021/09/02 06:57:46;;;;;;;1.60;1.20;;;15.30;98.20;;;;;;4983625;28;20495;-78
2021/09/02 07:00:14;;;;;;;1.60;1.00;;;15.30;98.20;;;;;;4988354;28;20480;-78
2021/09/02 07:02:41;;;;;;;1.60;1.00;;;15.40;98.20;;;;;;4977455;28;20492;-78
2021/09/02 07:05:09;;;;;;;1.60;1.00;;;15.50;98.20;;;;;;4987212;28;20469;-78
2021/09/02 07:07:37;;;;;;;1.60;1.10;;;15.60;98.20;;;;;;4978184;28;20492;-78
2021/09/02 07:10:05;;;;;;;1.60;1.00;;;15.70;98.20;;;;;;4996773;28;20494;-77
2021/09/02 07:12:32;;;;;;;1.60;1.00;;;15.70;98.20;;;;;;4978994;28;21107;-78
2021/09/02 07:14:59;;;;;;;1.60;1.00;;;15.70;98.20;;;;;;4991919;28;20457;-78
2021/09/02 07:17:26;;;;;;;1.60;1.00;;;15.70;98.20;;;;;;4984042;28;20493;-78
2021/09/02 07:19:53;;;;;;;1.63;1.10;;;15.90;98.20;;;;;;4997315;28;20470;-78
2021/09/02 07:22:19;;;;;;;1.60;1.00;;;16.00;98.20;;;;;;4980649;28;20516;-77
2021/09/02 07:24:48;;;;;;;1.60;1.00;;;16.20;98.20;;;;;;4992442;28;20472;-77
2021/09/02 07:27:15;;;;;;;1.60;1.10;;;16.40;98.20;;;;;;4980837;28;20999;-77
2021/09/02 07:29:41;;;;;;;1.60;1.00;;;16.60;98.20;;;;;;4991192;28;20468;-77
2021/09/02 07:32:08;;;;;;;1.60;1.00;;;16.80;98.20;;;;;;4982448;28;20863;-77
2021/09/02 07:34:35;;;;;;;1.60;1.00;;;17.00;98.20;;;;;;4992220;28;20484;-80
2021/09/02 07:37:02;;;;;;;1.60;0.90;;;17.20;98.20;;;;;;4982388;28;20495;-79
2021/09/02 07:39:29;;;;;;;1.60;0.90;;;17.40;98.20;;;;;;4996022;28;20475;-79
2021/09/02 07:41:57;;;;;;;1.60;1.00;;;17.60;98.20;;;;;;4983752;28;20489;-79
2021/09/02 07:44:24;;;;;;;1.60;1.00;;;17.90;98.20;;;;;;4985019;28;20512;-79
2021/09/02 07:46:51;;;;;;;1.60;1.00;;;18.10;98.20;;;;;;4982070;28;20484;-79
2021/09/02 07:49:17;;;;;;;1.60;1.00;;;18.20;98.20;;;;;;4992036;28;20465;-80
2021/09/02 07:51:44;;;;;;;1.60;1.00;;;18.30;98.20;;;;;;4986935;28;20488;-79
2021/09/02 07:54:12;;;;;;;1.60;1.00;;;18.50;98.20;;;;;;4991513;28;20489;-79
2021/09/02 07:56:39;;;;;;;1.60;0.97;;;18.60;98.20;;;;;;4986556;28;21287;-81
2021/09/02 07:59:07;;;;;;;1.60;1.00;;;18.80;98.20;;;;;;4989668;28;20474;-80
2021/09/02 08:01:34;;;;;;;1.60;1.00;;;18.90;98.20;;;;;;4981611;28;20481;-79
2021/09/02 08:04:01;;;;;;;1.60;0.90;;;19.00;98.20;;;;;;4991803;28;20484;-80
2021/09/02 08:06:28;;;;;;;1.60;1.00;;;19.10;98.20;;;;;;4983134;28;20572;-80
2021/09/02 08:08:54;;;;;;;1.60;1.00;;;19.20;98.20;;;;;;4996821;28;20465;-79
2021/09/02 08:11:22;;;;;;;1.57;1.00;;;19.30;98.20;;;;;;4987806;28;20481;-82
2021/09/02 08:13:49;;;;;;;1.60;0.90;;;19.40;98.20;;;;;;5001692;28;20516;-79
2021/09/02 08:16:17;;;;;;;1.53;0.90;;;19.60;98.20;;;;;;4984102;28;21127;-77
2021/09/02 08:18:44;;;;;;;1.60;0.90;;;19.70;96.90;;;;;;4997477;28;20461;-79
2021/09/02 08:21:10;;;;;;;1.57;0.90;;;19.90;96.60;;;;;;4987845;28;20486;-78
2021/09/02 08:23:37;;;;;;;1.60;0.97;;;20.00;97.70;;;;;;4998817;28;20484;-79
2021/09/02 08:26:04;;;;;;;1.60;0.90;;;20.10;96.10;;;;;;4980896;28;20473;-76
2021/09/02 08:28:31;;;;;;;1.57;0.90;;;20.30;96.60;;;;;;4991867;28;20464;-78
2021/09/02 08:30:57;;;;;;;1.53;0.90;;;20.40;95.80;;;;;;4983085;28;20498;-78
2021/09/02 08:33:26;;;;;;;1.53;0.90;;;20.50;95.90;;;;;;4991502;28;20485;-77
2021/09/02 08:35:53;;;;;;;1.57;0.90;;;20.50;97.40;;;;;;4982084;28;20464;-79
2021/09/02 08:38:21;;;;;;;1.53;0.90;;;20.50;95.40;;;;;;4988453;28;20464;-77
2021/09/02 08:40:48;;;;;;;1.57;0.90;;;20.50;94.30;;;;;;4989009;28;20465;-79
2021/09/02 08:43:15;;;;;;;1.53;0.90;;;20.50;95.30;;;;;;4987380;28;21051;-79
2021/09/02 08:45:42;;;;;;;1.50;0.90;;;20.60;94.60;;;;;;5006195;28;20475;-78
2021/09/02 08:48:09;;;;;;;1.53;0.90;;;20.60;95.30;;;;;;4975923;28;20492;-81
2021/09/02 08:50:39;;;;;;;1.53;0.90;;;20.70;94.30;;;;;;4995755;28;21143;-79
2021/09/02 08:53:08;;;;;;;1.57;0.90;;;20.80;94.10;;;;;;4983189;28;20850;-79
2021/09/02 08:55:35;;;;;;;1.57;0.90;;;20.80;94.90;;;;;;4992403;28;20460;-81
2021/09/02 08:58:02;;;;;;;1.53;0.90;;;20.80;93.90;;;;;;4984101;28;20543;-78
2021/09/02 09:00:29;;;;;;;1.57;0.90;;;20.90;93.10;;;;;;4998953;28;21004;-78
2021/09/02 09:02:58;;;;;;;1.60;1.00;;;21.00;92.50;;;;;;4981961;28;20476;-79
2021/09/02 09:05:24;;;;;;;1.60;0.90;;;21.10;92.80;;;;;;4987829;28;20465;-78
2021/09/02 09:07:53;;;;;;;1.60;0.90;;;21.20;92.30;;;;;;4978979;28;20473;-80
2021/09/02 09:10:21;;;;;;;1.57;0.90;;;21.30;92.10;;;;;;4990569;28;20982;-79
2021/09/02 09:12:51;;;;;;;1.50;0.90;;;21.50;92.30;;;;;;4983566;28;21019;-80
2021/09/02 09:15:20;;;;;;;1.53;0.90;;;21.60;92.00;;;;;;4988555;28;20925;-79
2021/09/02 09:17:47;;;;;;;1.50;0.90;;;21.70;91.50;;;;;;4977887;28;20511;-79
2021/09/02 09:20:17;;;;;;;1.50;0.90;;;21.80;92.40;;;;;;4987349;28;20472;-78
2021/09/02 09:22:48;;;;;;;1.50;0.90;;;22.00;91.30;;;;;;4979027;28;20492;-78
2021/09/02 09:25:16;;;;;;;1.50;0.90;;;22.10;91.90;;;;;;4992616;28;20465;-79
2021/09/02 09:27:48;;;;;;;1.50;0.90;;;22.20;90.40;;;;;;4978217;28;20489;-78
2021/09/02 09:30:16;;;;;;;1.57;0.90;;;22.20;91.50;;;;;;4989033;28;20468;-79
2021/09/02 09:32:46;;;;;;;1.53;0.90;;;22.30;89.70;;;;;;4975647;28;20493;-79
2021/09/02 09:35:16;;;;;;;1.57;1.00;;;22.40;90.30;;;;;;4986811;28;20461;-81
2021/09/02 09:37:43;;;;;;;1.60;0.90;;;22.40;90.00;;;;;;4980426;28;20500;-78
2021/09/02 09:40:23;;;;;;;1.53;0.90;;;22.50;89.80;;;;;;4989915;28;20467;-78
2021/09/02 09:43:05;;;;;;;1.57;0.90;;;22.60;91.00;;;;;;4982467;28;20496;-79
2021/09/02 09:45:43;;;;;;;1.53;0.90;;;22.60;90.60;;;;;;4990054;28;20464;-79
2021/09/02 09:48:29;;;;;;;1.53;0.90;;;22.70;89.70;;;;;;4980198;28;20484;-78
2021/09/02 09:51:14;;;;;;;1.53;0.90;;;22.80;90.10;;;;;;4986352;28;20530;-79
2021/09/02 09:53:42;;;;;;;1.53;0.90;;;22.90;88.90;;;;;;5001919;28;20802;-79
2021/09/02 09:56:11;;;;;;;1.53;0.90;;;22.90;88.80;;;;;;4983652;28;20486;-78
2021/09/02 09:58:38;;;;;;;1.57;0.90;;;23.00;89.00;;;;;;4992939;28;20472;-81
2021/09/02 10:01:07;;;;;;;1.50;0.90;;;23.10;89.20;;;;;;4978620;28;20453;-79
2021/09/02 10:03:36;;;;;;;1.57;0.90;;;23.10;88.70;;;;;;4991129;28;21014;-79
2021/09/02 10:06:05;;;;;;;1.70;1.30;;;23.20;88.30;;;;;;4980439;28;20799;-79
2021/09/02 10:08:35;;;;;;;1.57;0.90;;;23.20;88.10;;;;;;4990413;28;20570;-79
2021/09/02 10:11:04;;;;;;;1.57;0.90;;;23.20;88.60;;;;;;4978431;28;21377;-77
2021/09/02 10:13:32;;;;;;;1.60;0.90;;;23.30;87.60;;;;;;4987526;28;20477;-78
2021/09/02 10:16:00;;;;;;;1.60;1.10;;;23.30;89.60;;;;;;4978044;28;20464;-80
2021/09/02 10:18:29;;;;;;;1.60;0.90;;;23.40;87.10;;;;;;4987529;28;20472;-79
2021/09/02 10:21:00;;;;;;;1.57;0.90;;;23.40;88.10;;;;;;4985946;28;20479;-79
2021/09/02 10:23:27;;;;;;;1.60;1.10;;;23.50;88.80;;;;;;4981692;28;20492;-79
2021/09/02 10:25:54;;;;;;;1.57;0.90;;;23.60;88.40;;;;;;4978810;28;20806;-79
2021/09/02 10:28:29;;;;;;;1.53;0.90;;;23.70;86.90;;;;;;4986540;28;20615;-79
2021/09/02 10:30:59;;;;;;;1.57;0.90;;;23.80;87.90;;;;;;4978787;28;20464;-79
2021/09/02 10:33:41;;;;;;;1.80;1.20;;;23.80;88.20;;;;;;4985452;28;20481;-79
2021/09/02 10:36:40;;;;;;;1.53;0.90;;;23.90;85.90;;;;;;4980434;28;20481;-79
2021/09/02 10:39:07;;;;;;;1.57;0.90;;;24.10;85.90;;;;;;4954835;28;20986;-80
2021/09/02 10:41:50;;;;;;;1.57;0.90;;;24.10;86.60;;;;;;4979720;28;20483;-80
2021/09/02 10:44:22;;;;;;;1.53;0.90;;;24.10;86.30;;;;;;4986349;28;20543;-80
2021/09/02 10:46:52;;;;;;;1.50;0.90;;;24.10;84.70;;;;;;4979167;28;20489;-79
2021/09/02 10:49:26;;;;;;;1.53;0.90;;;24.10;84.00;;;;;;4983843;28;20453;-81
2021/09/02 10:51:56;;;;;;;1.53;0.90;;;24.20;84.10;;;;;;4979405;28;20992;-79
2021/09/02 10:54:29;;;;;;;1.57;0.90;;;24.20;84.40;;;;;;4987440;28;20503;-79
2021/09/02 10:57:07;;;;;;;1.57;0.90;;;24.30;83.80;;;;;;4986703;28;21081;-81
2021/09/02 10:59:42;;;;;;;1.50;0.87;;;24.30;82.80;;;;;;4982248;28;20465;-80
2021/09/02 11:02:11;;;;;;;1.57;0.90;;;24.20;82.30;;;;;;4976851;28;20482;-77
2021/09/02 11:04:39;;;;;;;1.50;1.00;;;24.30;85.90;;;;;;4987617;28;20865;-77
2021/09/02 11:07:10;;;;;;;1.57;0.90;;;24.30;83.80;;;;;;4978408;28;20567;-79
2021/09/02 11:09:40;;;;;;;1.53;1.00;;;24.40;83.10;;;;;;4985367;28;20484;-77
2021/09/02 11:12:11;;;;;;;1.53;0.90;;;24.50;84.20;;;;;;4970359;28;20481;-77
2021/09/02 11:14:43;;;;;;;1.50;0.90;;;24.50;85.60;;;;;;4984068;28;20579;-79
2021/09/02 11:17:11;;;;;;;1.50;0.80;;;24.60;84.30;;;;;;4971958;28;20492;-76
2021/09/02 11:19:39;;;;;;;1.53;0.80;;;24.80;83.10;;;;;;4983319;28;20473;-76
2021/09/02 11:22:08;;;;;;;1.50;0.90;;;24.90;83.60;;;;;;4976409;28;20489;-79
2021/09/02 11:24:40;;;;;;;1.50;0.90;;;25.00;82.50;;;;;;4984682;28;20488;-79
2021/09/02 11:27:07;;;;;;;1.50;0.87;;;25.10;82.70;;;;;;4979255;28;20492;-79
2021/09/02 11:29:34;;;;;;;1.50;0.90;;;25.20;82.10;;;;;;4988803;28;20471;-78
2021/09/02 11:32:02;;;;;;;1.50;0.90;;;25.20;82.80;;;;;;4977251;28;20508;-78
2021/09/02 11:34:31;;;;;;;1.50;0.83;;;25.20;82.30;;;;;;4986363;28;20540;-78
2021/09/02 11:36:58;;;;;;;1.50;0.90;;;25.30;83.00;;;;;;4975523;28;20492;-78
2021/09/02 11:39:28;;;;;;;1.50;0.90;;;25.40;81.80;;;;;;4985447;28;20491;-78
2021/09/02 11:42:06;;;;;;;1.50;0.90;;;25.40;80.70;;;;;;4972942;28;20514;-78
2021/09/02 11:44:35;;;;;;;1.50;0.87;;;25.30;81.00;;;;;;4982273;28;20488;-79
2021/09/02 11:47:06;;;;;;;1.50;0.90;;;25.30;80.60;;;;;;4975894;28;20520;-79
2021/09/02 11:49:34;;;;;;;1.50;0.90;;;25.40;79.80;;;;;;4991581;28;20457;-78
2021/09/02 11:52:04;;;;;;;1.50;0.90;;;25.50;81.10;;;;;;4976483;28;20484;-78
2021/09/02 11:54:32;;;;;;;1.53;0.90;;;25.50;80.80;;;;;;4985798;28;20597;-78
2021/09/02 11:56:59;;;;;;;1.50;0.80;;;25.60;81.70;;;;;;4982792;28;20516;-78
2021/09/02 11:59:26;;;;;;;1.50;0.80;;;25.70;81.80;;;;;;4987051;28;20464;-80
2021/09/02 12:01:55;;;;;;;1.50;0.90;;;25.80;81.00;;;;;;4982699;28;20884;-80
2021/09/02 12:04:23;;;;;;;1.53;0.90;;;25.80;80.70;;;;;;4987508;28;20495;-79
2021/09/02 12:06:54;;;;;;;1.53;0.90;;;25.90;80.80;;;;;;4979651;28;20675;-80
2021/09/02 12:09:23;;;;;;;1.50;0.90;;;26.10;80.30;;;;;;4986261;28;20464;-81
2021/09/02 12:11:51;;;;;;;1.50;0.90;;;26.00;77.50;;;;;;4977741;28;20494;-81
2021/09/02 12:14:22;;;;;;;1.50;0.90;;;26.00;79.20;;;;;;4986422;28;20885;-80
2021/09/02 12:17:01;;;;;;;1.53;0.90;;;26.10;77.50;;;;;;4985572;28;20492;-79
2021/09/02 12:19:28;;;;;;;1.50;0.90;;;26.20;78.60;;;;;;4987598;28;20468;-80
2021/09/02 12:22:14;;;;;;;1.53;0.90;;;26.40;78.10;;;;;;4974785;28;20495;-79
2021/09/02 12:24:41;;;;;;;1.53;0.83;;;26.40;79.30;;;;;;4987499;28;20785;-79
2021/09/02 12:27:08;;;;;;;1.57;0.80;;;26.50;76.40;;;;;;4976110;28;20488;-79
2021/09/02 12:29:46;;;;;;;1.57;0.90;;;26.50;78.40;;;;;;4992975;28;20474;-78
2021/09/02 12:32:16;;;;;;;1.50;0.90;;;26.70;77.10;;;;;;4969913;28;20547;-79
2021/09/02 12:34:43;;;;;;;1.53;0.90;;;26.70;76.40;;;;;;4987096;28;20867;-80
2021/09/02 12:37:12;;;;;;;1.53;1.00;;;26.80;76.00;;;;;;4977026;28;20931;-80
2021/09/02 12:39:48;;;;;;;1.50;0.90;;;26.90;76.20;;;;;;4991993;28;20579;-79
2021/09/02 12:42:22;;;;;;;1.50;0.80;;;26.90;76.50;;;;;;4984581;28;20496;-78
2021/09/02 12:45:04;;;;;;;1.53;0.90;;;27.00;79.30;;;;;;4994171;28;20498;-78
2021/09/02 12:47:31;;;;;;;1.50;0.80;;;27.20;75.40;;;;;;4982850;28;20484;-78
2021/09/02 12:49:58;;;;;;;1.57;0.90;;;27.30;74.90;;;;;;4992765;28;21032;-78
2021/09/02 12:52:28;;;;;;;1.50;0.90;;;27.30;75.60;;;;;;4978683;28;20487;-78
2021/09/02 12:55:14;;;;;;;1.53;0.90;;;27.30;75.80;;;;;;4993495;28;20511;-78